sensor_id;sensor_type;location;lat;lon;timestamp;temperature;humidity
37806;DHT22;25082;50.870;0.022;2024-03-25T00:00:59;19.50;59.10
37806;DHT22;25082;50.870;0.022;2024-03-25T00:03:25;19.40;59.00
37806;DHT22;25082;50.870;0.022;2024-03-25T00:05:51;19.40;59.00
37806;DHT22;25082;50.870;0.022;2024-03-25T00:08:17;19.40;58.90
37806;DHT22;25082;50.870;0.022;2024-03-25T00:10:42;19.50;58.80
37806;DHT22;25082;50.870;0.022;2024-03-25T00:13:08;19.40;58.80
37806;DHT22;25082;50.870;0.022;2024-03-25T00:15:36;19.40;58.70
37806;DHT22;25082;50.870;0.022;2024-03-25T00:18:04;19.40;58.80
37806;DHT22;25082;50.870;0.022;2024-03-25T00:20:30;19.40;58.70
37806;DHT22;25082;50.870;0.022;2024-03-25T00:22:55;19.30;58.70
37806;DHT22;25082;50.870;0.022;2024-03-25T00:25:21;19.30;58.60
37806;DHT22;25082;50.870;0.022;2024-03-25T00:27:47;19.30;58.60
37806;DHT22;25082;50.870;0.022;2024-03-25T00:30:13;19.30;58.60
37806;DHT22;25082;50.870;0.022;2024-03-25T00:32:39;19.30;58.60
37806;DHT22;25082;50.870;0.022;2024-03-25T00:35:05;19.30;58.60
37806;DHT22;25082;50.870;0.022;2024-03-25T00:37:31;19.30;58.60
37806;DHT22;25082;50.870;0.022;2024-03-25T00:39:57;19.30;58.60
37806;DHT22;25082;50.870;0.022;2024-03-25T00:42:23;19.30;58.60
37806;DHT22;25082;50.870;0.022;2024-03-25T00:44:49;19.20;58.60
37806;DHT22;25082;50.870;0.022;2024-03-25T00:47:14;19.20;58.60
37806;DHT22;25082;50.870;0.022;2024-03-25T00:49:40;19.20;58.50
37806;DHT22;25082;50.870;0.022;2024-03-25T00:52:06;19.20;58.60
37806;DHT22;25082;50.870;0.022;2024-03-25T00:54:32;19.20;58.50
37806;DHT22;25082;50.870;0.022;2024-03-25T00:56:58;19.20;58.50
37806;DHT22;25082;50.870;0.022;2024-03-25T00:59:23;19.20;58.50
37806;DHT22;25082;50.870;0.022;2024-03-25T01:01:50;19.20;58.50
37806;DHT22;25082;50.870;0.022;2024-03-25T01:04:16;19.10;59.10
37806;DHT22;25082;50.870;0.022;2024-03-25T01:06:42;19.10;58.50
37806;DHT22;25082;50.870;0.022;2024-03-25T01:09:08;19.10;58.60
37806;DHT22;25082;50.870;0.022;2024-03-25T01:11:35;19.10;58.60
37806;DHT22;25082;50.870;0.022;2024-03-25T01:14:01;19.10;58.50
37806;DHT22;25082;50.870;0.022;2024-03-25T01:16:27;19.10;58.50
37806;DHT22;25082;50.870;0.022;2024-03-25T01:18:53;19.10;58.60
37806;DHT22;25082;50.870;0.022;2024-03-25T01:21:18;19.10;58.50
37806;DHT22;25082;50.870;0.022;2024-03-25T01:23:44;19.10;58.50
37806;DHT22;25082;50.870;0.022;2024-03-25T01:26:10;19.10;58.50
37806;DHT22;25082;50.870;0.022;2024-03-25T01:28:36;19.00;58.50
37806;DHT22;25082;50.870;0.022;2024-03-25T01:31:01;19.00;58.40
37806;DHT22;25082;50.870;0.022;2024-03-25T01:33:27;19.00;58.50
37806;DHT22;25082;50.870;0.022;2024-03-25T01:35:53;19.00;58.40
37806;DHT22;25082;50.870;0.022;2024-03-25T01:38:21;19.00;59.00
37806;DHT22;25082;50.870;0.022;2024-03-25T01:40:47;19.00;58.50
37806;DHT22;25082;50.870;0.022;2024-03-25T01:43:13;19.00;58.30
37806;DHT22;25082;50.870;0.022;2024-03-25T01:45:39;19.00;58.40
37806;DHT22;25082;50.870;0.022;2024-03-25T01:48:07;19.00;58.30
37806;DHT22;25082;50.870;0.022;2024-03-25T01:50:43;18.90;58.40
37806;DHT22;25082;50.870;0.022;2024-03-25T01:53:11;18.90;58.40
37806;DHT22;25082;50.870;0.022;2024-03-25T01:55:38;19.00;58.30
37806;DHT22;25082;50.870;0.022;2024-03-25T01:58:05;18.90;58.40
37806;DHT22;25082;50.870;0.022;2024-03-25T02:00:32;18.90;58.20
37806;DHT22;25082;50.870;0.022;2024-03-25T02:02:58;18.90;58.20
37806;DHT22;25082;50.870;0.022;2024-03-25T02:05:24;18.90;58.10
37806;DHT22;25082;50.870;0.022;2024-03-25T02:07:51;18.90;58.20
37806;DHT22;25082;50.870;0.022;2024-03-25T02:10:17;18.90;58.20
37806;DHT22;25082;50.870;0.022;2024-03-25T02:12:44;18.90;58.30
37806;DHT22;25082;50.870;0.022;2024-03-25T02:15:11;18.80;58.00
37806;DHT22;25082;50.870;0.022;2024-03-25T02:17:38;18.80;58.10
37806;DHT22;25082;50.870;0.022;2024-03-25T02:20:05;18.80;58.00
37806;DHT22;25082;50.870;0.022;2024-03-25T02:22:34;18.80;58.00
37806;DHT22;25082;50.870;0.022;2024-03-25T02:25:00;18.80;58.00
37806;DHT22;25082;50.870;0.022;2024-03-25T02:27:27;18.80;58.00
37806;DHT22;25082;50.870;0.022;2024-03-25T02:30:08;18.80;58.00
37806;DHT22;25082;50.870;0.022;2024-03-25T02:32:35;18.80;58.00
37806;DHT22;25082;50.870;0.022;2024-03-25T02:35:03;18.80;58.00
37806;DHT22;25082;50.870;0.022;2024-03-25T02:37:30;18.70;57.90
37806;DHT22;25082;50.870;0.022;2024-03-25T02:39:58;18.70;57.90
37806;DHT22;25082;50.870;0.022;2024-03-25T02:42:29;18.80;57.90
37806;DHT22;25082;50.870;0.022;2024-03-25T02:44:56;18.70;57.80
37806;DHT22;25082;50.870;0.022;2024-03-25T02:47:22;18.80;57.90
37806;DHT22;25082;50.870;0.022;2024-03-25T02:49:48;18.70;57.90
37806;DHT22;25082;50.870;0.022;2024-03-25T02:52:14;18.70;57.90
37806;DHT22;25082;50.870;0.022;2024-03-25T02:54:40;18.70;57.90
37806;DHT22;25082;50.870;0.022;2024-03-25T02:57:05;18.70;57.90
37806;DHT22;25082;50.870;0.022;2024-03-25T02:59:31;18.70;57.90
37806;DHT22;25082;50.870;0.022;2024-03-25T03:01:57;18.60;57.80
37806;DHT22;25082;50.870;0.022;2024-03-25T03:04:23;18.60;57.70
37806;DHT22;25082;50.870;0.022;2024-03-25T03:06:48;18.60;57.80
37806;DHT22;25082;50.870;0.022;2024-03-25T03:09:14;18.60;57.70
37806;DHT22;25082;50.870;0.022;2024-03-25T03:11:41;18.60;57.80
37806;DHT22;25082;50.870;0.022;2024-03-25T03:14:06;18.60;57.70
37806;DHT22;25082;50.870;0.022;2024-03-25T03:16:32;18.60;57.80
37806;DHT22;25082;50.870;0.022;2024-03-25T03:18:58;18.60;57.70
37806;DHT22;25082;50.870;0.022;2024-03-25T03:21:24;18.60;57.80
37806;DHT22;25082;50.870;0.022;2024-03-25T03:23:49;18.60;57.70
37806;DHT22;25082;50.870;0.022;2024-03-25T03:26:15;18.60;57.70
37806;DHT22;25082;50.870;0.022;2024-03-25T03:28:41;18.60;57.70
37806;DHT22;25082;50.870;0.022;2024-03-25T03:31:07;18.60;57.80
37806;DHT22;25082;50.870;0.022;2024-03-25T03:33:33;18.60;57.70
37806;DHT22;25082;50.870;0.022;2024-03-25T03:35:59;18.60;57.70
37806;DHT22;25082;50.870;0.022;2024-03-25T03:38:25;18.50;57.70
37806;DHT22;25082;50.870;0.022;2024-03-25T03:41:02;18.50;57.70
37806;DHT22;25082;50.870;0.022;2024-03-25T03:43:28;18.50;57.70
37806;DHT22;25082;50.870;0.022;2024-03-25T03:45:54;18.50;57.60
37806;DHT22;25082;50.870;0.022;2024-03-25T03:48:20;18.50;57.60
37806;DHT22;25082;50.870;0.022;2024-03-25T03:50:46;18.50;57.60
37806;DHT22;25082;50.870;0.022;2024-03-25T03:53:12;18.50;57.70
37806;DHT22;25082;50.870;0.022;2024-03-25T03:55:38;18.50;57.60
37806;DHT22;25082;50.870;0.022;2024-03-25T03:58:04;18.50;57.80
37806;DHT22;25082;50.870;0.022;2024-03-25T04:00:33;18.50;57.60
37806;DHT22;25082;50.870;0.022;2024-03-25T04:03:00;18.40;57.60
37806;DHT22;25082;50.870;0.022;2024-03-25T04:05:29;18.50;57.60
37806;DHT22;25082;50.870;0.022;2024-03-25T04:07:55;18.40;57.50
37806;DHT22;25082;50.870;0.022;2024-03-25T04:10:21;18.40;57.60
37806;DHT22;25082;50.870;0.022;2024-03-25T04:12:47;18.40;57.60
37806;DHT22;25082;50.870;0.022;2024-03-25T04:15:12;18.40;58.20
37806;DHT22;25082;50.870;0.022;2024-03-25T04:17:44;18.40;57.60
37806;DHT22;25082;50.870;0.022;2024-03-25T04:20:11;18.40;57.60
37806;DHT22;25082;50.870;0.022;2024-03-25T04:22:40;18.40;57.50
37806;DHT22;25082;50.870;0.022;2024-03-25T04:25:08;18.40;57.50
37806;DHT22;25082;50.870;0.022;2024-03-25T04:27:39;18.40;57.60
37806;DHT22;25082;50.870;0.022;2024-03-25T04:30:08;18.40;57.60
37806;DHT22;25082;50.870;0.022;2024-03-25T04:32:35;18.30;57.50
37806;DHT22;25082;50.870;0.022;2024-03-25T04:35:02;18.30;57.50
37806;DHT22;25082;50.870;0.022;2024-03-25T04:37:29;18.30;57.50
37806;DHT22;25082;50.870;0.022;2024-03-25T04:39:55;18.30;57.50
37806;DHT22;25082;50.870;0.022;2024-03-25T04:42:21;18.30;57.50
37806;DHT22;25082;50.870;0.022;2024-03-25T04:44:48;18.30;58.10
37806;DHT22;25082;50.870;0.022;2024-03-25T04:47:13;18.30;57.50
37806;DHT22;25082;50.870;0.022;2024-03-25T04:49:42;18.30;57.50
37806;DHT22;25082;50.870;0.022;2024-03-25T04:52:08;18.30;57.50
37806;DHT22;25082;50.870;0.022;2024-03-25T04:54:34;18.30;57.50
37806;DHT22;25082;50.870;0.022;2024-03-25T04:57:00;18.30;57.50
37806;DHT22;25082;50.870;0.022;2024-03-25T04:59:26;18.30;57.50
37806;DHT22;25082;50.870;0.022;2024-03-25T05:01:51;18.30;57.50
37806;DHT22;25082;50.870;0.022;2024-03-25T05:04:20;18.30;57.60
37806;DHT22;25082;50.870;0.022;2024-03-25T05:06:46;18.30;57.60
37806;DHT22;25082;50.870;0.022;2024-03-25T05:09:11;18.20;57.60
37806;DHT22;25082;50.870;0.022;2024-03-25T05:11:37;18.20;57.60
37806;DHT22;25082;50.870;0.022;2024-03-25T05:14:03;18.20;57.60
37806;DHT22;25082;50.870;0.022;2024-03-25T05:16:29;18.20;57.70
37806;DHT22;25082;50.870;0.022;2024-03-25T05:18:54;18.20;57.70
37806;DHT22;25082;50.870;0.022;2024-03-25T05:21:20;18.20;57.70
37806;DHT22;25082;50.870;0.022;2024-03-25T05:23:46;18.20;57.80
37806;DHT22;25082;50.870;0.022;2024-03-25T05:26:11;18.20;57.80
37806;DHT22;25082;50.870;0.022;2024-03-25T05:28:37;18.20;57.80
37806;DHT22;25082;50.870;0.022;2024-03-25T05:31:07;18.20;57.90
37806;DHT22;25082;50.870;0.022;2024-03-25T05:33:33;18.20;57.90
37806;DHT22;25082;50.870;0.022;2024-03-25T05:35:59;18.20;57.90
37806;DHT22;25082;50.870;0.022;2024-03-25T05:38:26;18.20;58.00
37806;DHT22;25082;50.870;0.022;2024-03-25T05:40:52;18.20;58.00
37806;DHT22;25082;50.870;0.022;2024-03-25T05:43:18;18.20;58.00
37806;DHT22;25082;50.870;0.022;2024-03-25T05:45:52;18.10;58.00
37806;DHT22;25082;50.870;0.022;2024-03-25T05:48:19;18.10;58.10
37806;DHT22;25082;50.870;0.022;2024-03-25T05:50:45;18.10;58.10
37806;DHT22;25082;50.870;0.022;2024-03-25T05:53:10;18.10;58.10
37806;DHT22;25082;50.870;0.022;2024-03-25T05:55:36;18.10;58.10
37806;DHT22;25082;50.870;0.022;2024-03-25T05:58:02;18.10;58.10
37806;DHT22;25082;50.870;0.022;2024-03-25T06:00:32;18.10;58.10
37806;DHT22;25082;50.870;0.022;2024-03-25T06:02:58;18.10;58.20
37806;DHT22;25082;50.870;0.022;2024-03-25T06:05:24;18.10;58.20
37806;DHT22;25082;50.870;0.022;2024-03-25T06:07:50;18.10;58.20
37806;DHT22;25082;50.870;0.022;2024-03-25T06:10:15;18.10;58.30
37806;DHT22;25082;50.870;0.022;2024-03-25T06:12:41;18.10;58.30
37806;DHT22;25082;50.870;0.022;2024-03-25T06:15:07;18.10;58.30
37806;DHT22;25082;50.870;0.022;2024-03-25T06:17:33;18.10;58.30
37806;DHT22;25082;50.870;0.022;2024-03-25T06:19:59;18.10;58.30
37806;DHT22;25082;50.870;0.022;2024-03-25T06:22:25;18.10;58.30
37806;DHT22;25082;50.870;0.022;2024-03-25T06:24:51;18.10;58.40
37806;DHT22;25082;50.870;0.022;2024-03-25T06:27:17;18.00;58.30
37806;DHT22;25082;50.870;0.022;2024-03-25T06:29:43;18.10;58.40
37806;DHT22;25082;50.870;0.022;2024-03-25T06:32:11;18.00;58.40
37806;DHT22;25082;50.870;0.022;2024-03-25T06:34:55;18.00;58.40
37806;DHT22;25082;50.870;0.022;2024-03-25T06:37:25;18.00;58.40
37806;DHT22;25082;50.870;0.022;2024-03-25T06:39:51;18.00;58.40
37806;DHT22;25082;50.870;0.022;2024-03-25T06:42:16;18.00;58.40
37806;DHT22;25082;50.870;0.022;2024-03-25T06:44:42;18.00;58.40
37806;DHT22;25082;50.870;0.022;2024-03-25T06:47:08;18.00;58.40
37806;DHT22;25082;50.870;0.022;2024-03-25T06:49:34;18.00;58.50
37806;DHT22;25082;50.870;0.022;2024-03-25T06:52:00;18.10;58.50
37806;DHT22;25082;50.870;0.022;2024-03-25T06:54:25;18.00;58.50
37806;DHT22;25082;50.870;0.022;2024-03-25T06:56:51;18.00;58.50
37806;DHT22;25082;50.870;0.022;2024-03-25T06:59:17;18.00;58.50
37806;DHT22;25082;50.870;0.022;2024-03-25T07:01:43;18.00;58.50
37806;DHT22;25082;50.870;0.022;2024-03-25T07:04:09;18.00;58.50
37806;DHT22;25082;50.870;0.022;2024-03-25T07:06:34;18.00;58.50
37806;DHT22;25082;50.870;0.022;2024-03-25T07:09:00;18.00;58.50
37806;DHT22;25082;50.870;0.022;2024-03-25T07:11:26;18.00;58.50
37806;DHT22;25082;50.870;0.022;2024-03-25T07:13:52;18.00;58.50
37806;DHT22;25082;50.870;0.022;2024-03-25T07:16:18;18.00;58.60
37806;DHT22;25082;50.870;0.022;2024-03-25T07:18:44;18.00;58.60
37806;DHT22;25082;50.870;0.022;2024-03-25T07:21:10;18.00;58.60
37806;DHT22;25082;50.870;0.022;2024-03-25T07:23:36;18.00;58.60
37806;DHT22;25082;50.870;0.022;2024-03-25T07:26:01;18.00;58.60
37806;DHT22;25082;50.870;0.022;2024-03-25T07:28:28;18.00;58.60
37806;DHT22;25082;50.870;0.022;2024-03-25T07:30:54;18.00;58.70
37806;DHT22;25082;50.870;0.022;2024-03-25T07:33:20;18.00;58.80
37806;DHT22;25082;50.870;0.022;2024-03-25T07:35:46;18.00;58.70
37806;DHT22;25082;50.870;0.022;2024-03-25T07:38:11;18.00;59.00
37806;DHT22;25082;50.870;0.022;2024-03-25T07:40:37;18.00;58.70
37806;DHT22;25082;50.870;0.022;2024-03-25T07:43:03;18.10;58.70
37806;DHT22;25082;50.870;0.022;2024-03-25T07:45:29;18.10;58.60
37806;DHT22;25082;50.870;0.022;2024-03-25T07:47:55;18.10;58.60
37806;DHT22;25082;50.870;0.022;2024-03-25T07:50:21;18.10;58.60
37806;DHT22;25082;50.870;0.022;2024-03-25T07:52:46;18.20;58.60
37806;DHT22;25082;50.870;0.022;2024-03-25T07:55:12;18.20;58.60
37806;DHT22;25082;50.870;0.022;2024-03-25T07:57:38;18.20;58.60
37806;DHT22;25082;50.870;0.022;2024-03-25T08:00:04;18.20;58.70
37806;DHT22;25082;50.870;0.022;2024-03-25T08:02:34;18.30;58.70
37806;DHT22;25082;50.870;0.022;2024-03-25T08:05:01;18.30;58.70
37806;DHT22;25082;50.870;0.022;2024-03-25T08:07:27;18.30;58.70
37806;DHT22;25082;50.870;0.022;2024-03-25T08:09:52;18.30;58.80
37806;DHT22;25082;50.870;0.022;2024-03-25T08:12:18;18.40;58.80
37806;DHT22;25082;50.870;0.022;2024-03-25T08:14:44;18.40;58.80
37806;DHT22;25082;50.870;0.022;2024-03-25T08:17:09;18.40;58.80
37806;DHT22;25082;50.870;0.022;2024-03-25T08:19:35;18.40;58.80
37806;DHT22;25082;50.870;0.022;2024-03-25T08:22:01;18.40;58.80
37806;DHT22;25082;50.870;0.022;2024-03-25T08:24:26;18.40;58.70
37806;DHT22;25082;50.870;0.022;2024-03-25T08:26:52;18.50;58.80
37806;DHT22;25082;50.870;0.022;2024-03-25T08:29:18;18.50;58.80
37806;DHT22;25082;50.870;0.022;2024-03-25T08:31:43;18.50;58.80
37806;DHT22;25082;50.870;0.022;2024-03-25T08:34:09;18.50;58.80
37806;DHT22;25082;50.870;0.022;2024-03-25T08:36:35;18.60;58.90
37806;DHT22;25082;50.870;0.022;2024-03-25T08:39:01;18.60;58.80
37806;DHT22;25082;50.870;0.022;2024-03-25T08:41:26;18.60;58.90
37806;DHT22;25082;50.870;0.022;2024-03-25T08:43:52;18.60;58.80
37806;DHT22;25082;50.870;0.022;2024-03-25T08:46:18;18.60;58.80
37806;DHT22;25082;50.870;0.022;2024-03-25T08:48:44;18.60;58.80
37806;DHT22;25082;50.870;0.022;2024-03-25T08:51:09;18.60;58.80
37806;DHT22;25082;50.870;0.022;2024-03-25T08:53:35;18.70;58.80
37806;DHT22;25082;50.870;0.022;2024-03-25T08:56:01;18.70;58.80
37806;DHT22;25082;50.870;0.022;2024-03-25T08:58:26;18.70;58.80
37806;DHT22;25082;50.870;0.022;2024-03-25T09:00:52;18.70;58.80
37806;DHT22;25082;50.870;0.022;2024-03-25T09:03:18;18.70;58.80
37806;DHT22;25082;50.870;0.022;2024-03-25T09:05:43;18.70;58.70
37806;DHT22;25082;50.870;0.022;2024-03-25T09:08:09;18.70;58.80
37806;DHT22;25082;50.870;0.022;2024-03-25T09:10:38;18.80;58.80
37806;DHT22;25082;50.870;0.022;2024-03-25T09:13:24;18.70;58.80
37806;DHT22;25082;50.870;0.022;2024-03-25T09:15:50;18.80;58.80
37806;DHT22;25082;50.870;0.022;2024-03-25T09:18:16;18.80;58.80
37806;DHT22;25082;50.870;0.022;2024-03-25T09:20:42;18.80;58.70
37806;DHT22;25082;50.870;0.022;2024-03-25T09:23:08;18.80;58.70
37806;DHT22;25082;50.870;0.022;2024-03-25T09:25:34;18.90;58.80
37806;DHT22;25082;50.870;0.022;2024-03-25T09:28:00;18.90;58.80
37806;DHT22;25082;50.870;0.022;2024-03-25T09:30:26;18.90;58.80
37806;DHT22;25082;50.870;0.022;2024-03-25T09:32:52;18.90;58.80
37806;DHT22;25082;50.870;0.022;2024-03-25T09:35:18;19.00;58.80
37806;DHT22;25082;50.870;0.022;2024-03-25T09:37:44;18.90;58.70
37806;DHT22;25082;50.870;0.022;2024-03-25T09:40:10;19.00;58.70
37806;DHT22;25082;50.870;0.022;2024-03-25T09:42:49;19.00;59.30
37806;DHT22;25082;50.870;0.022;2024-03-25T09:45:18;19.00;58.70
37806;DHT22;25082;50.870;0.022;2024-03-25T09:47:46;19.00;58.70
37806;DHT22;25082;50.870;0.022;2024-03-25T09:50:15;19.00;59.20
37806;DHT22;25082;50.870;0.022;2024-03-25T09:52:50;19.00;58.70
37806;DHT22;25082;50.870;0.022;2024-03-25T09:55:16;19.10;58.70
37806;DHT22;25082;50.870;0.022;2024-03-25T09:57:45;19.00;58.60
37806;DHT22;25082;50.870;0.022;2024-03-25T10:00:12;19.10;58.60
37806;DHT22;25082;50.870;0.022;2024-03-25T10:02:39;19.10;58.60
37806;DHT22;25082;50.870;0.022;2024-03-25T10:05:06;19.10;58.60
37806;DHT22;25082;50.870;0.022;2024-03-25T10:07:32;19.10;58.50
37806;DHT22;25082;50.870;0.022;2024-03-25T10:09:58;19.10;58.50
37806;DHT22;25082;50.870;0.022;2024-03-25T10:12:27;19.10;58.40
37806;DHT22;25082;50.870;0.022;2024-03-25T10:14:53;19.20;58.40
37806;DHT22;25082;50.870;0.022;2024-03-25T10:17:19;19.20;58.40
37806;DHT22;25082;50.870;0.022;2024-03-25T10:19:45;19.20;58.40
37806;DHT22;25082;50.870;0.022;2024-03-25T10:22:11;19.20;58.40
37806;DHT22;25082;50.870;0.022;2024-03-25T10:24:45;19.20;58.40
37806;DHT22;25082;50.870;0.022;2024-03-25T10:27:19;19.20;58.40
37806;DHT22;25082;50.870;0.022;2024-03-25T10:29:46;19.30;58.40
37806;DHT22;25082;50.870;0.022;2024-03-25T10:32:13;19.30;58.30
37806;DHT22;25082;50.870;0.022;2024-03-25T10:34:39;19.30;58.30
37806;DHT22;25082;50.870;0.022;2024-03-25T10:37:05;19.30;58.40
37806;DHT22;25082;50.870;0.022;2024-03-25T10:39:39;19.30;58.70
37806;DHT22;25082;50.870;0.022;2024-03-25T10:42:10;19.30;59.10
37806;DHT22;25082;50.870;0.022;2024-03-25T10:44:38;19.30;59.80
37806;DHT22;25082;50.870;0.022;2024-03-25T10:47:06;19.30;59.50
37806;DHT22;25082;50.870;0.022;2024-03-25T10:52:05;19.20;59.80
37806;DHT22;25082;50.870;0.022;2024-03-25T10:54:32;19.20;60.00
37806;DHT22;25082;50.870;0.022;2024-03-25T10:56:59;19.20;60.00
37806;DHT22;25082;50.870;0.022;2024-03-25T10:59:30;19.30;60.20
37806;DHT22;25082;50.870;0.022;2024-03-25T11:01:56;19.30;60.20
37806;DHT22;25082;50.870;0.022;2024-03-25T11:04:25;19.30;60.20
37806;DHT22;25082;50.870;0.022;2024-03-25T11:06:51;19.30;60.30
37806;DHT22;25082;50.870;0.022;2024-03-25T11:09:25;19.30;60.80
37806;DHT22;25082;50.870;0.022;2024-03-25T11:11:54;19.30;61.20
37806;DHT22;25082;50.870;0.022;2024-03-25T11:14:20;19.40;61.30
37806;DHT22;25082;50.870;0.022;2024-03-25T11:16:53;19.40;61.90
37806;DHT22;25082;50.870;0.022;2024-03-25T11:19:26;19.40;62.30
37806;DHT22;25082;50.870;0.022;2024-03-25T11:21:52;19.40;62.30
37806;DHT22;25082;50.870;0.022;2024-03-25T11:24:30;19.40;62.30
37806;DHT22;25082;50.870;0.022;2024-03-25T11:26:56;19.40;62.20
37806;DHT22;25082;50.870;0.022;2024-03-25T11:29:22;19.50;62.20
37806;DHT22;25082;50.870;0.022;2024-03-25T11:31:53;19.50;62.70
37806;DHT22;25082;50.870;0.022;2024-03-25T11:34:19;19.50;62.00
37806;DHT22;25082;50.870;0.022;2024-03-25T11:36:46;19.50;61.80
37806;DHT22;25082;50.870;0.022;2024-03-25T11:39:14;19.50;61.80
37806;DHT22;25082;50.870;0.022;2024-03-25T11:41:42;19.50;61.80
37806;DHT22;25082;50.870;0.022;2024-03-25T11:44:09;19.50;61.80
37806;DHT22;25082;50.870;0.022;2024-03-25T11:46:39;19.60;61.80
37806;DHT22;25082;50.870;0.022;2024-03-25T11:49:12;19.60;61.70
37806;DHT22;25082;50.870;0.022;2024-03-25T11:51:38;19.60;61.70
37806;DHT22;25082;50.870;0.022;2024-03-25T11:54:07;19.60;61.70
37806;DHT22;25082;50.870;0.022;2024-03-25T11:56:36;19.60;61.80
37806;DHT22;25082;50.870;0.022;2024-03-25T11:59:03;19.60;61.70
37806;DHT22;25082;50.870;0.022;2024-03-25T12:01:30;19.60;61.60
37806;DHT22;25082;50.870;0.022;2024-03-25T12:03:56;19.60;61.70
37806;DHT22;25082;50.870;0.022;2024-03-25T12:06:21;19.60;61.70
37806;DHT22;25082;50.870;0.022;2024-03-25T12:08:47;19.60;62.00
37806;DHT22;25082;50.870;0.022;2024-03-25T12:11:32;19.60;61.40
37806;DHT22;25082;50.870;0.022;2024-03-25T12:13:58;19.60;61.40
37806;DHT22;25082;50.870;0.022;2024-03-25T12:16:24;19.60;61.40
37806;DHT22;25082;50.870;0.022;2024-03-25T12:18:51;19.60;61.40
37806;DHT22;25082;50.870;0.022;2024-03-25T12:21:20;19.70;61.40
37806;DHT22;25082;50.870;0.022;2024-03-25T12:23:47;19.70;61.40
37806;DHT22;25082;50.870;0.022;2024-03-25T12:26:13;19.70;61.40
37806;DHT22;25082;50.870;0.022;2024-03-25T12:28:40;19.70;61.40
37806;DHT22;25082;50.870;0.022;2024-03-25T12:31:09;19.70;61.30
37806;DHT22;25082;50.870;0.022;2024-03-25T12:33:41;19.70;61.30
37806;DHT22;25082;50.870;0.022;2024-03-25T12:36:06;19.70;61.30
37806;DHT22;25082;50.870;0.022;2024-03-25T12:38:32;19.70;61.30
37806;DHT22;25082;50.870;0.022;2024-03-25T12:41:11;19.70;61.80
37806;DHT22;25082;50.870;0.022;2024-03-25T12:43:47;19.80;61.30
37806;DHT22;25082;50.870;0.022;2024-03-25T12:46:12;19.80;61.30
37806;DHT22;25082;50.870;0.022;2024-03-25T12:48:38;19.80;61.30
37806;DHT22;25082;50.870;0.022;2024-03-25T12:51:11;19.80;61.20
37806;DHT22;25082;50.870;0.022;2024-03-25T12:53:37;19.80;61.20
37806;DHT22;25082;50.870;0.022;2024-03-25T12:56:03;19.80;61.20
37806;DHT22;25082;50.870;0.022;2024-03-25T12:58:28;19.80;61.20
37806;DHT22;25082;50.870;0.022;2024-03-25T13:00:54;19.80;61.10
37806;DHT22;25082;50.870;0.022;2024-03-25T13:03:21;19.80;61.00
37806;DHT22;25082;50.870;0.022;2024-03-25T13:05:47;19.80;61.00
37806;DHT22;25082;50.870;0.022;2024-03-25T13:08:12;19.80;60.90
37806;DHT22;25082;50.870;0.022;2024-03-25T13:10:38;19.80;60.80
37806;DHT22;25082;50.870;0.022;2024-03-25T13:13:04;19.80;60.80
37806;DHT22;25082;50.870;0.022;2024-03-25T13:15:31;19.80;60.70
37806;DHT22;25082;50.870;0.022;2024-03-25T13:17:57;19.80;60.60
37806;DHT22;25082;50.870;0.022;2024-03-25T13:20:23;19.80;60.60
37806;DHT22;25082;50.870;0.022;2024-03-25T13:22:49;19.90;60.80
37806;DHT22;25082;50.870;0.022;2024-03-25T13:25:18;19.80;61.10
37806;DHT22;25082;50.870;0.022;2024-03-25T13:27:45;19.80;61.50
37806;DHT22;25082;50.870;0.022;2024-03-25T13:30:11;19.80;61.10
37806;DHT22;25082;50.870;0.022;2024-03-25T13:32:36;19.80;59.20
37806;DHT22;25082;50.870;0.022;2024-03-25T13:35:02;19.70;57.20
37806;DHT22;25082;50.870;0.022;2024-03-25T13:37:28;19.60;54.30
37806;DHT22;25082;50.870;0.022;2024-03-25T13:39:54;19.50;52.90
37806;DHT22;25082;50.870;0.022;2024-03-25T13:42:20;19.30;52.50
37806;DHT22;25082;50.870;0.022;2024-03-25T13:44:46;19.20;52.50
37806;DHT22;25082;50.870;0.022;2024-03-25T13:47:12;19.20;51.70
37806;DHT22;25082;50.870;0.022;2024-03-25T13:49:37;19.10;52.40
37806;DHT22;25082;50.870;0.022;2024-03-25T13:52:03;19.00;51.70
37806;DHT22;25082;50.870;0.022;2024-03-25T13:54:32;19.00;51.40
37806;DHT22;25082;50.870;0.022;2024-03-25T13:56:58;19.00;50.70
37806;DHT22;25082;50.870;0.022;2024-03-25T13:59:24;19.00;52.70
37806;DHT22;25082;50.870;0.022;2024-03-25T14:01:50;19.00;53.50
37806;DHT22;25082;50.870;0.022;2024-03-25T14:04:17;19.10;54.30
37806;DHT22;25082;50.870;0.022;2024-03-25T14:06:43;19.20;54.80
37806;DHT22;25082;50.870;0.022;2024-03-25T14:09:32;19.30;55.80
37806;DHT22;25082;50.870;0.022;2024-03-25T14:11:57;19.40;55.60
37806;DHT22;25082;50.870;0.022;2024-03-25T14:14:23;19.40;56.00
37806;DHT22;25082;50.870;0.022;2024-03-25T14:16:48;19.50;56.30
37806;DHT22;25082;50.870;0.022;2024-03-25T14:19:14;19.50;56.60
37806;DHT22;25082;50.870;0.022;2024-03-25T14:21:40;19.50;56.90
37806;DHT22;25082;50.870;0.022;2024-03-25T14:24:06;19.60;57.00
37806;DHT22;25082;50.870;0.022;2024-03-25T14:26:32;19.60;57.30
37806;DHT22;25082;50.870;0.022;2024-03-25T14:28:58;19.60;57.50
37806;DHT22;25082;50.870;0.022;2024-03-25T14:31:25;19.60;57.70
37806;DHT22;25082;50.870;0.022;2024-03-25T14:33:51;19.70;57.90
37806;DHT22;25082;50.870;0.022;2024-03-25T14:36:17;19.70;58.10
37806;DHT22;25082;50.870;0.022;2024-03-25T14:38:43;19.70;58.20
37806;DHT22;25082;50.870;0.022;2024-03-25T14:41:11;19.70;58.30
37806;DHT22;25082;50.870;0.022;2024-03-25T14:43:38;19.70;58.40
37806;DHT22;25082;50.870;0.022;2024-03-25T14:46:04;19.70;58.50
37806;DHT22;25082;50.870;0.022;2024-03-25T14:48:30;19.70;58.60
37806;DHT22;25082;50.870;0.022;2024-03-25T14:50:55;19.70;58.60
37806;DHT22;25082;50.870;0.022;2024-03-25T14:53:21;19.70;58.80
37806;DHT22;25082;50.870;0.022;2024-03-25T14:55:47;19.70;58.80
37806;DHT22;25082;50.870;0.022;2024-03-25T14:58:13;19.70;58.90
37806;DHT22;25082;50.870;0.022;2024-03-25T15:00:39;19.70;59.00
37806;DHT22;25082;50.870;0.022;2024-03-25T15:03:04;19.70;59.00
37806;DHT22;25082;50.870;0.022;2024-03-25T15:05:30;19.80;59.10
37806;DHT22;25082;50.870;0.022;2024-03-25T15:07:56;19.80;59.10
37806;DHT22;25082;50.870;0.022;2024-03-25T15:10:22;19.80;59.20
37806;DHT22;25082;50.870;0.022;2024-03-25T15:12:47;19.80;59.20
37806;DHT22;25082;50.870;0.022;2024-03-25T15:15:13;19.80;59.30
37806;DHT22;25082;50.870;0.022;2024-03-25T15:17:39;19.80;59.40
37806;DHT22;25082;50.870;0.022;2024-03-25T15:20:05;19.80;59.40
37806;DHT22;25082;50.870;0.022;2024-03-25T15:22:31;19.80;59.40
37806;DHT22;25082;50.870;0.022;2024-03-25T15:24:57;19.80;59.50
37806;DHT22;25082;50.870;0.022;2024-03-25T15:27:23;19.80;59.50
37806;DHT22;25082;50.870;0.022;2024-03-25T15:29:48;19.80;59.50